TimeCST,TemperatureF,Dew PointF,Humidity,Sea Level PressureIn,VisibilityMPH,Wind Direction,Wind SpeedMPH,Gust SpeedMPH,PrecipitationIn,Events,Conditions,WindDirDegrees,DateUTC
12:15 AM,38.8,36.7,92,30.18,10.0,North,-9999.0,-,N/A,Rain,Light Rain,0,2013-01-17 06:15:00
12:35 AM,39.2,36.7,91,30.18,10.0,North,-9999.0,-,N/A,,Overcast,0,2013-01-17 06:35:00
12:55 AM,39.2,36.7,91,30.19,10.0,North,-9999.0,-,N/A,,Overcast,0,2013-01-17 06:55:00
1:15 AM,39.2,36.5,90,30.19,10.0,North,-9999.0,-,N/A,,Overcast,0,2013-01-17 07:15:00
1:35 AM,39.4,36.1,88,30.19,10.0,North,-9999.0,-,N/A,,Overcast,0,2013-01-17 07:35:00
1:55 AM,39.6,36.3,88,30.20,10.0,North,-9999.0,-,N/A,,Overcast,0,2013-01-17 07:55:00
2:15 AM,39.7,36.1,87,30.20,10.0,North,-9999.0,-,N/A,,Overcast,0,2013-01-17 08:15:00
2:35 AM,39.4,36.0,88,30.20,10.0,North,-9999.0,-,N/A,,Mostly Cloudy,0,2013-01-17 08:35:00
3:15 AM,39.2,35.1,85,30.20,10.0,North,-9999.0,-,N/A,,Clear,0,2013-01-17 09:15:00
3:35 AM,39.2,35.2,86,30.21,10.0,North,-9999.0,-,N/A,,Clear,0,2013-01-17 09:35:00
3:55 AM,39.2,35.1,85,30.21,10.0,North,-9999.0,-,N/A,,Clear,0,2013-01-17 09:55:00
4:15 AM,39.2,34.9,84,30.22,10.0,North,-9999.0,-,N/A,,Clear,0,2013-01-17 10:15:00
4:35 AM,37.9,35.2,90,30.23,10.0,North,-9999.0,-,N/A,,Scattered Clouds,0,2013-01-17 10:35:00
4:55 AM,38.1,35.6,91,30.23,10.0,North,-9999.0,-,N/A,,Mostly Cloudy,0,2013-01-17 10:55:00
5:15 AM,37.8,35.6,92,30.24,10.0,North,-9999.0,-,N/A,,Overcast,0,2013-01-17 11:15:00
5:35 AM,37.4,35.4,93,30.24,10.0,North,-9999.0,-,N/A,,Mostly Cloudy,0,2013-01-17 11:35:00
5:55 AM,36.9,35.6,95,30.25,10.0,North,-9999.0,-,N/A,,Scattered Clouds,0,2013-01-17 11:55:00
6:15 AM,36.5,35.4,96,30.26,10.0,North,-9999.0,-,N/A,,Clear,0,2013-01-17 12:15:00
6:35 AM,35.8,34.9,97,30.26,10.0,North,-9999.0,-,N/A,,Clear,0,2013-01-17 12:35:00
6:55 AM,36.7,34.5,92,30.28,10.0,North,-9999.0,-,N/A,,Clear,0,2013-01-17 12:55:00
7:15 AM,36.3,34.0,91,30.28,10.0,North,-9999.0,-,N/A,,Clear,0,2013-01-17 13:15:00
7:35 AM,36.3,34.2,92,30.28,10.0,North,-9999.0,-,N/A,,Clear,0,2013-01-17 13:35:00
7:55 AM,36.9,35.1,93,30.28,10.0,Calm,Calm,-,N/A,,Clear,0,2013-01-17 13:55:00
8:15 AM,38.3,35.4,89,30.30,10.0,West,3.5,-,N/A,,Clear,280,2013-01-17 14:15:00
8:35 AM,39.6,35.8,86,30.30,10.0,NNW,4.6,-,N/A,,Clear,330,2013-01-17 14:35:00
8:55 AM,40.3,35.6,83,30.31,10.0,WNW,5.8,-,N/A,,Clear,300,2013-01-17 14:55:00
9:15 AM,41.4,36.0,81,30.33,10.0,NW,6.9,-,N/A,,Clear,320,2013-01-17 15:15:00
9:35 AM,42.1,36.1,79,30.34,10.0,NNW,5.8,-,N/A,,Clear,330,2013-01-17 15:35:00
9:55 AM,43.0,35.8,76,30.33,10.0,West,8.1,-,N/A,,Clear,280,2013-01-17 15:55:00
10:15 AM,44.1,35.8,73,30.34,10.0,WNW,9.2,-,N/A,,Clear,300,2013-01-17 16:15:00
10:35 AM,44.8,35.4,70,30.33,10.0,NW,8.1,-,N/A,,Clear,320,2013-01-17 16:35:00
10:55 AM,45.5,35.1,67,30.33,10.0,WNW,8.1,-,N/A,,Clear,300,2013-01-17 16:55:00
11:15 AM,46.8,34.2,62,30.33,10.0,WNW,10.4,17.3,N/A,,Clear,290,2013-01-17 17:15:00
11:35 AM,47.1,31.5,55,30.32,10.0,NW,12.7,18.4,N/A,,Clear,310,2013-01-17 17:35:00
11:55 AM,48.2,31.6,53,30.31,10.0,NW,11.5,19.6,N/A,,Clear,310,2013-01-17 17:55:00
12:15 PM,48.7,30.6,50,30.30,10.0,WNW,8.1,18.4,N/A,,Clear,300,2013-01-17 18:15:00
12:35 PM,49.3,28.9,45,30.29,10.0,NW,16.1,21.9,N/A,,Clear,320,2013-01-17 18:35:00
12:55 PM,50.0,30.4,47,30.28,10.0,NNW,11.5,18.4,N/A,,Clear,330,2013-01-17 18:55:00
1:15 PM,50.5,28.9,43,30.28,10.0,NW,13.8,19.6,N/A,,Clear,320,2013-01-17 19:15:00
1:35 PM,51.4,30.7,45,30.27,10.0,NW,10.4,17.3,N/A,,Clear,320,2013-01-17 19:35:00
1:55 PM,51.4,28.9,42,30.27,10.0,NW,11.5,20.7,N/A,,Clear,310,2013-01-17 19:55:00
2:15 PM,51.8,30.2,44,30.27,10.0,NW,10.4,17.3,N/A,,Clear,310,2013-01-17 20:15:00
2:35 PM,52.2,31.8,46,30.27,10.0,NNW,9.2,-,N/A,,Clear,330,2013-01-17 20:35:00
2:55 PM,52.7,32.0,45,30.27,10.0,North,9.2,-,N/A,,Clear,350,2013-01-17 20:55:00
3:15 PM,52.7,32.2,46,30.27,10.0,NNW,12.7,17.3,N/A,,Clear,330,2013-01-17 21:15:00
3:35 PM,52.9,32.0,45,30.28,10.0,NNW,13.8,-,N/A,,Clear,340,2013-01-17 21:35:00
3:55 PM,53.2,32.4,45,30.29,10.0,NNW,6.9,-,N/A,,Clear,340,2013-01-17 21:55:00
4:55 PM,53.1,32.4,45,30.31,10.0,North,9.2,-,N/A,,Clear,350,2013-01-17 22:55:00
5:35 PM,50.4,33.1,52,30.34,10.0,North,8.1,-,N/A,,Clear,350,2013-01-17 23:35:00
6:15 PM,48.2,33.4,57,30.36,10.0,North,3.5,-,N/A,,Clear,350,2013-01-18 00:15:00
6:55 PM,45.1,35.4,69,30.38,10.0,Calm,Calm,-,N/A,,Clear,0,2013-01-18 00:55:00
7:55 PM,42.3,36.7,81,30.41,10.0,Calm,Calm,-,N/A,,Clear,0,2013-01-18 01:55:00
8:15 PM,42.1,36.9,82,30.42,10.0,Calm,Calm,-,N/A,,Clear,0,2013-01-18 02:15:00
8:35 PM,42.4,36.7,80,30.42,10.0,NNW,3.5,-,N/A,,Clear,340,2013-01-18 02:35:00
8:55 PM,41.2,36.9,85,30.43,10.0,Calm,Calm,-,N/A,,Clear,0,2013-01-18 02:55:00
9:15 PM,40.8,37.0,86,30.43,10.0,NNW,3.5,-,N/A,,Clear,340,2013-01-18 03:15:00
9:35 PM,40.5,36.5,86,30.43,10.0,NNW,4.6,-,N/A,,Clear,340,2013-01-18 03:35:00
9:55 PM,41.9,35.8,79,30.43,10.0,North,3.5,-,N/A,,Clear,350,2013-01-18 03:55:00
11:15 PM,40.3,35.6,83,30.43,10.0,NNW,5.8,-,N/A,,Clear,340,2013-01-18 05:15:00
11:35 PM,41.2,35.1,79,30.43,10.0,NNW,5.8,-,N/A,,Clear,340,2013-01-18 05:35:00
11:55 PM,41.5,34.9,77,30.43,10.0,North,6.9,-,N/A,,Clear,350,2013-01-18 05:55:00